sensor_id;sensor_type;location;lat;lon;timestamp;temperature;humidity
62583;DHT22;48641;51.676;5.808;2022-08-18T00:04:29;24.60;57.60
62583;DHT22;48641;51.676;5.808;2022-08-18T00:06:55;24.60;57.70
62583;DHT22;48641;51.676;5.808;2022-08-18T00:09:21;24.60;57.70
62583;DHT22;48641;51.676;5.808;2022-08-18T00:11:47;24.60;57.70
62583;DHT22;48641;51.676;5.808;2022-08-18T00:14:18;24.60;57.60
62583;DHT22;48641;51.676;5.808;2022-08-18T00:16:44;24.60;57.60
62583;DHT22;48641;51.676;5.808;2022-08-18T00:19:09;24.60;57.60
62583;DHT22;48641;51.676;5.808;2022-08-18T00:21:35;24.60;57.60
62583;DHT22;48641;51.676;5.808;2022-08-18T00:24:01;24.60;57.40
62583;DHT22;48641;51.676;5.808;2022-08-18T00:26:27;24.60;57.50
62583;DHT22;48641;51.676;5.808;2022-08-18T00:28:52;24.60;57.60
62583;DHT22;48641;51.676;5.808;2022-08-18T00:31:18;24.60;57.60
62583;DHT22;48641;51.676;5.808;2022-08-18T00:33:43;24.60;57.50
62583;DHT22;48641;51.676;5.808;2022-08-18T00:36:10;24.50;57.40
62583;DHT22;48641;51.676;5.808;2022-08-18T00:38:36;24.50;57.70
62583;DHT22;48641;51.676;5.808;2022-08-18T00:41:02;24.60;57.50
62583;DHT22;48641;51.676;5.808;2022-08-18T00:43:47;24.50;57.40
62583;DHT22;48641;51.676;5.808;2022-08-18T00:46:21;24.60;57.50
62583;DHT22;48641;51.676;5.808;2022-08-18T00:48:47;24.60;57.50
62583;DHT22;48641;51.676;5.808;2022-08-18T00:51:17;24.50;57.60
62583;DHT22;48641;51.676;5.808;2022-08-18T00:53:59;24.50;57.40
62583;DHT22;48641;51.676;5.808;2022-08-18T00:56:30;24.60;57.30
62583;DHT22;48641;51.676;5.808;2022-08-18T00:59:08;24.50;57.40
62583;DHT22;48641;51.676;5.808;2022-08-18T01:01:35;24.50;57.20
62583;DHT22;48641;51.676;5.808;2022-08-18T01:04:08;24.50;57.60
62583;DHT22;48641;51.676;5.808;2022-08-18T01:06:47;24.50;57.40
62583;DHT22;48641;51.676;5.808;2022-08-18T01:09:16;24.50;57.60
62583;DHT22;48641;51.676;5.808;2022-08-18T01:11:42;24.50;57.80
62583;DHT22;48641;51.676;5.808;2022-08-18T01:14:10;24.50;57.80
62583;DHT22;48641;51.676;5.808;2022-08-18T01:16:40;24.50;57.90
62583;DHT22;48641;51.676;5.808;2022-08-18T01:19:36;24.50;57.90
62583;DHT22;48641;51.676;5.808;2022-08-18T01:22:29;24.50;57.90
62583;DHT22;48641;51.676;5.808;2022-08-18T01:24:58;24.50;58.00
62583;DHT22;48641;51.676;5.808;2022-08-18T01:27:42;24.50;57.80
62583;DHT22;48641;51.676;5.808;2022-08-18T01:30:12;24.50;57.80
62583;DHT22;48641;51.676;5.808;2022-08-18T01:32:40;24.50;57.80
62583;DHT22;48641;51.676;5.808;2022-08-18T01:35:08;24.50;58.00
62583;DHT22;48641;51.676;5.808;2022-08-18T01:37:35;24.50;57.80
62583;DHT22;48641;51.676;5.808;2022-08-18T01:40:00;24.50;57.90
62583;DHT22;48641;51.676;5.808;2022-08-18T01:42:30;24.50;57.80
62583;DHT22;48641;51.676;5.808;2022-08-18T01:44:55;24.50;58.00
62583;DHT22;48641;51.676;5.808;2022-08-18T01:47:21;24.50;58.00
62583;DHT22;48641;51.676;5.808;2022-08-18T01:49:46;24.50;58.00
62583;DHT22;48641;51.676;5.808;2022-08-18T01:52:17;24.50;58.00
62583;DHT22;48641;51.676;5.808;2022-08-18T01:54:47;24.50;58.00
62583;DHT22;48641;51.676;5.808;2022-08-18T01:57:13;24.50;58.10
62583;DHT22;48641;51.676;5.808;2022-08-18T01:59:40;24.50;58.00
62583;DHT22;48641;51.676;5.808;2022-08-18T02:02:08;24.50;57.90
62583;DHT22;48641;51.676;5.808;2022-08-18T02:04:34;24.50;58.00
62583;DHT22;48641;51.676;5.808;2022-08-18T02:07:02;24.50;57.80
62583;DHT22;48641;51.676;5.808;2022-08-18T02:09:28;24.50;57.60
62583;DHT22;48641;51.676;5.808;2022-08-18T02:11:54;24.50;57.60
62583;DHT22;48641;51.676;5.808;2022-08-18T02:14:20;24.50;57.50
62583;DHT22;48641;51.676;5.808;2022-08-18T02:16:46;24.50;57.60
62583;DHT22;48641;51.676;5.808;2022-08-18T02:19:12;24.40;57.60
62583;DHT22;48641;51.676;5.808;2022-08-18T02:21:38;24.40;57.50
62583;DHT22;48641;51.676;5.808;2022-08-18T02:24:04;24.50;57.50
62583;DHT22;48641;51.676;5.808;2022-08-18T02:26:29;24.40;57.60
62583;DHT22;48641;51.676;5.808;2022-08-18T02:28:55;24.40;57.90
62583;DHT22;48641;51.676;5.808;2022-08-18T02:31:22;24.40;57.90
62583;DHT22;48641;51.676;5.808;2022-08-18T02:33:49;24.50;58.00
62583;DHT22;48641;51.676;5.808;2022-08-18T02:36:15;24.40;58.00
62583;DHT22;48641;51.676;5.808;2022-08-18T02:38:41;24.40;58.00
62583;DHT22;48641;51.676;5.808;2022-08-18T02:41:10;24.50;58.00
62583;DHT22;48641;51.676;5.808;2022-08-18T02:43:37;24.50;58.00
62583;DHT22;48641;51.676;5.808;2022-08-18T02:46:04;24.50;58.00
62583;DHT22;48641;51.676;5.808;2022-08-18T02:48:31;24.40;57.90
62583;DHT22;48641;51.676;5.808;2022-08-18T02:53:30;24.40;57.80
62583;DHT22;48641;51.676;5.808;2022-08-18T02:56:04;24.40;57.60
62583;DHT22;48641;51.676;5.808;2022-08-18T02:58:39;24.50;58.10
62583;DHT22;48641;51.676;5.808;2022-08-18T03:01:05;24.40;58.10
62583;DHT22;48641;51.676;5.808;2022-08-18T03:03:30;24.40;58.10
62583;DHT22;48641;51.676;5.808;2022-08-18T03:05:56;24.40;58.20
62583;DHT22;48641;51.676;5.808;2022-08-18T03:08:22;24.40;58.20
62583;DHT22;48641;51.676;5.808;2022-08-18T03:10:50;24.40;58.20
62583;DHT22;48641;51.676;5.808;2022-08-18T03:13:17;24.40;58.00
62583;DHT22;48641;51.676;5.808;2022-08-18T03:15:42;24.40;58.10
62583;DHT22;48641;51.676;5.808;2022-08-18T03:18:09;24.40;58.10
62583;DHT22;48641;51.676;5.808;2022-08-18T03:20:36;24.40;58.10
62583;DHT22;48641;51.676;5.808;2022-08-18T03:23:03;24.40;58.10
62583;DHT22;48641;51.676;5.808;2022-08-18T03:25:29;24.40;58.10
62583;DHT22;48641;51.676;5.808;2022-08-18T03:27:54;24.40;57.90
62583;DHT22;48641;51.676;5.808;2022-08-18T03:30:20;24.40;57.90
62583;DHT22;48641;51.676;5.808;2022-08-18T03:32:47;24.40;58.00
62583;DHT22;48641;51.676;5.808;2022-08-18T03:35:12;24.40;57.90
62583;DHT22;48641;51.676;5.808;2022-08-18T03:37:39;24.40;57.70
62583;DHT22;48641;51.676;5.808;2022-08-18T03:40:05;24.40;57.70
62583;DHT22;48641;51.676;5.808;2022-08-18T03:42:31;24.30;57.80
62583;DHT22;48641;51.676;5.808;2022-08-18T03:44:57;24.40;58.00
62583;DHT22;48641;51.676;5.808;2022-08-18T03:47:22;24.40;57.90
62583;DHT22;48641;51.676;5.808;2022-08-18T03:49:48;24.30;57.90
62583;DHT22;48641;51.676;5.808;2022-08-18T03:52:14;24.40;57.90
62583;DHT22;48641;51.676;5.808;2022-08-18T03:54:40;24.40;57.90
62583;DHT22;48641;51.676;5.808;2022-08-18T03:57:10;24.30;58.00
62583;DHT22;48641;51.676;5.808;2022-08-18T03:59:37;24.40;57.90
62583;DHT22;48641;51.676;5.808;2022-08-18T04:02:06;24.30;58.10
62583;DHT22;48641;51.676;5.808;2022-08-18T04:04:32;24.30;58.00
62583;DHT22;48641;51.676;5.808;2022-08-18T04:07:00;24.30;58.10
62583;DHT22;48641;51.676;5.808;2022-08-18T04:09:30;24.30;58.10
62583;DHT22;48641;51.676;5.808;2022-08-18T04:12:00;24.30;58.20
62583;DHT22;48641;51.676;5.808;2022-08-18T04:14:27;24.30;58.30
62583;DHT22;48641;51.676;5.808;2022-08-18T04:16:57;24.30;58.10
62583;DHT22;48641;51.676;5.808;2022-08-18T04:19:23;24.30;58.20
62583;DHT22;48641;51.676;5.808;2022-08-18T04:21:51;24.30;58.20
62583;DHT22;48641;51.676;5.808;2022-08-18T04:24:17;24.30;58.10
62583;DHT22;48641;51.676;5.808;2022-08-18T04:26:45;24.30;58.20
62583;DHT22;48641;51.676;5.808;2022-08-18T04:29:13;24.30;58.20
62583;DHT22;48641;51.676;5.808;2022-08-18T04:31:39;24.30;58.20
62583;DHT22;48641;51.676;5.808;2022-08-18T04:34:05;24.30;58.00
62583;DHT22;48641;51.676;5.808;2022-08-18T04:36:32;24.30;58.00
62583;DHT22;48641;51.676;5.808;2022-08-18T04:38:59;24.30;58.00
62583;DHT22;48641;51.676;5.808;2022-08-18T04:41:25;24.30;58.00
62583;DHT22;48641;51.676;5.808;2022-08-18T04:44:00;24.30;58.10
62583;DHT22;48641;51.676;5.808;2022-08-18T04:46:27;24.30;58.10
62583;DHT22;48641;51.676;5.808;2022-08-18T04:48:54;24.20;58.20
62583;DHT22;48641;51.676;5.808;2022-08-18T04:51:27;24.30;58.10
62583;DHT22;48641;51.676;5.808;2022-08-18T04:53:54;24.30;58.20
62583;DHT22;48641;51.676;5.808;2022-08-18T04:56:26;24.30;58.20
62583;DHT22;48641;51.676;5.808;2022-08-18T05:01:20;24.30;57.90
62583;DHT22;48641;51.676;5.808;2022-08-18T05:03:47;24.20;57.80
62583;DHT22;48641;51.676;5.808;2022-08-18T05:06:13;24.20;57.70
62583;DHT22;48641;51.676;5.808;2022-08-18T05:08:39;24.20;57.70
62583;DHT22;48641;51.676;5.808;2022-08-18T05:11:05;24.20;57.60
62583;DHT22;48641;51.676;5.808;2022-08-18T05:13:30;24.20;57.70
62583;DHT22;48641;51.676;5.808;2022-08-18T05:15:57;24.20;57.70
62583;DHT22;48641;51.676;5.808;2022-08-18T05:18:32;24.20;57.70
62583;DHT22;48641;51.676;5.808;2022-08-18T05:20:58;24.20;57.80
62583;DHT22;48641;51.676;5.808;2022-08-18T05:23:26;24.20;58.10
62583;DHT22;48641;51.676;5.808;2022-08-18T05:25:59;24.20;58.10
62583;DHT22;48641;51.676;5.808;2022-08-18T05:28:25;24.20;58.00
62583;DHT22;48641;51.676;5.808;2022-08-18T05:30:51;24.20;58.10
62583;DHT22;48641;51.676;5.808;2022-08-18T05:33:16;24.20;58.10
62583;DHT22;48641;51.676;5.808;2022-08-18T05:35:45;24.20;58.00
62583;DHT22;48641;51.676;5.808;2022-08-18T05:43:34;24.20;58.20
62583;DHT22;48641;51.676;5.808;2022-08-18T05:46:02;24.20;58.20
62583;DHT22;48641;51.676;5.808;2022-08-18T05:48:30;24.20;58.20
62583;DHT22;48641;51.676;5.808;2022-08-18T05:50:57;24.20;58.20
62583;DHT22;48641;51.676;5.808;2022-08-18T05:53:24;24.20;58.20
62583;DHT22;48641;51.676;5.808;2022-08-18T05:56:12;24.20;58.30
62583;DHT22;48641;51.676;5.808;2022-08-18T05:58:58;24.20;58.40
62583;DHT22;48641;51.676;5.808;2022-08-18T06:01:32;24.10;58.10
62583;DHT22;48641;51.676;5.808;2022-08-18T06:04:08;24.10;58.20
62583;DHT22;48641;51.676;5.808;2022-08-18T06:06:37;24.20;58.10
62583;DHT22;48641;51.676;5.808;2022-08-18T06:09:27;24.10;58.30
62583;DHT22;48641;51.676;5.808;2022-08-18T06:12:02;24.20;58.30
62583;DHT22;48641;51.676;5.808;2022-08-18T06:14:29;24.10;58.30
62583;DHT22;48641;51.676;5.808;2022-08-18T06:17:30;24.20;58.40
62583;DHT22;48641;51.676;5.808;2022-08-18T06:20:00;24.20;58.00
62583;DHT22;48641;51.676;5.808;2022-08-18T06:25:36;24.10;58.10
62583;DHT22;48641;51.676;5.808;2022-08-18T06:28:07;24.10;58.00
62583;DHT22;48641;51.676;5.808;2022-08-18T06:30:43;24.10;57.90
62583;DHT22;48641;51.676;5.808;2022-08-18T06:33:38;24.10;58.00
62583;DHT22;48641;51.676;5.808;2022-08-18T06:41:49;24.10;58.10
62583;DHT22;48641;51.676;5.808;2022-08-18T06:44:44;24.10;58.50
62583;DHT22;48641;51.676;5.808;2022-08-18T06:50:23;24.10;58.70
62583;DHT22;48641;51.676;5.808;2022-08-18T06:53:05;24.10;58.70
62583;DHT22;48641;51.676;5.808;2022-08-18T06:55:40;24.10;58.80
62583;DHT22;48641;51.676;5.808;2022-08-18T07:00:53;24.10;58.70
62583;DHT22;48641;51.676;5.808;2022-08-18T07:03:22;24.10;58.60
62583;DHT22;48641;51.676;5.808;2022-08-18T07:06:05;24.10;58.70
62583;DHT22;48641;51.676;5.808;2022-08-18T07:08:42;24.10;58.60
62583;DHT22;48641;51.676;5.808;2022-08-18T07:13:54;24.10;58.80
62583;DHT22;48641;51.676;5.808;2022-08-18T07:16:30;24.10;58.80
62583;DHT22;48641;51.676;5.808;2022-08-18T07:19:13;24.10;58.60
62583;DHT22;48641;51.676;5.808;2022-08-18T07:21:46;24.00;59.10
62583;DHT22;48641;51.676;5.808;2022-08-18T07:24:31;24.00;59.20
62583;DHT22;48641;51.676;5.808;2022-08-18T07:29:28;24.10;59.20
62583;DHT22;48641;51.676;5.808;2022-08-18T07:31:58;24.10;59.30
62583;DHT22;48641;51.676;5.808;2022-08-18T07:34:37;24.10;59.10
62583;DHT22;48641;51.676;5.808;2022-08-18T07:37:09;24.10;59.00
62583;DHT22;48641;51.676;5.808;2022-08-18T07:39:42;24.10;59.00
62583;DHT22;48641;51.676;5.808;2022-08-18T07:42:27;24.20;58.90
62583;DHT22;48641;51.676;5.808;2022-08-18T07:45:05;24.10;58.60
62583;DHT22;48641;51.676;5.808;2022-08-18T07:48:26;24.10;58.70
62583;DHT22;48641;51.676;5.808;2022-08-18T07:50:27;24.20;58.80
62583;DHT22;48641;51.676;5.808;2022-08-18T07:56:06;24.10;59.00
62583;DHT22;48641;51.676;5.808;2022-08-18T07:58:42;24.10;59.20
62583;DHT22;48641;51.676;5.808;2022-08-18T08:01:21;24.10;59.20
62583;DHT22;48641;51.676;5.808;2022-08-18T08:03:53;24.10;59.00
62583;DHT22;48641;51.676;5.808;2022-08-18T08:09:11;24.20;59.30
62583;DHT22;48641;51.676;5.808;2022-08-18T08:20:17;24.20;59.40
62583;DHT22;48641;51.676;5.808;2022-08-18T08:28:22;24.20;59.50
62583;DHT22;48641;51.676;5.808;2022-08-18T08:33:46;24.20;59.50
62583;DHT22;48641;51.676;5.808;2022-08-18T08:36:22;24.20;59.50
62583;DHT22;48641;51.676;5.808;2022-08-18T08:39:01;24.20;59.70
62583;DHT22;48641;51.676;5.808;2022-08-18T08:41:34;24.20;59.60
62583;DHT22;48641;51.676;5.808;2022-08-18T08:46:49;24.20;59.50
62583;DHT22;48641;51.676;5.808;2022-08-18T08:49:40;24.20;59.50
62583;DHT22;48641;51.676;5.808;2022-08-18T08:52:28;24.20;59.40
62583;DHT22;48641;51.676;5.808;2022-08-18T08:54:57;24.20;59.50
62583;DHT22;48641;51.676;5.808;2022-08-18T08:57:32;24.20;59.50
62583;DHT22;48641;51.676;5.808;2022-08-18T09:00:01;24.20;59.30
62583;DHT22;48641;51.676;5.808;2022-08-18T09:02:31;24.20;59.30
62583;DHT22;48641;51.676;5.808;2022-08-18T09:05:24;24.20;59.40
62583;DHT22;48641;51.676;5.808;2022-08-18T09:08:12;24.20;59.50
62583;DHT22;48641;51.676;5.808;2022-08-18T09:14:40;24.20;59.50
62583;DHT22;48641;51.676;5.808;2022-08-18T09:22:34;24.30;59.50
62583;DHT22;48641;51.676;5.808;2022-08-18T09:25:01;24.20;59.30
62583;DHT22;48641;51.676;5.808;2022-08-18T09:27:41;24.20;59.30
62583;DHT22;48641;51.676;5.808;2022-08-18T09:38:59;24.30;60.30
62583;DHT22;48641;51.676;5.808;2022-08-18T09:41:56;24.30;59.20
62583;DHT22;48641;51.676;5.808;2022-08-18T09:47:10;24.30;59.10
62583;DHT22;48641;51.676;5.808;2022-08-18T09:49:54;24.20;59.00
62583;DHT22;48641;51.676;5.808;2022-08-18T09:52:45;24.30;59.20
62583;DHT22;48641;51.676;5.808;2022-08-18T09:57:40;24.30;59.10
62583;DHT22;48641;51.676;5.808;2022-08-18T10:07:42;24.40;59.00
62583;DHT22;48641;51.676;5.808;2022-08-18T10:10:14;24.40;59.00
62583;DHT22;48641;51.676;5.808;2022-08-18T10:12:51;24.40;59.00
62583;DHT22;48641;51.676;5.808;2022-08-18T10:20:48;24.40;59.00
62583;DHT22;48641;51.676;5.808;2022-08-18T10:28:59;24.50;58.90
62583;DHT22;48641;51.676;5.808;2022-08-18T10:31:28;24.40;59.00
62583;DHT22;48641;51.676;5.808;2022-08-18T10:34:00;24.40;59.00
62583;DHT22;48641;51.676;5.808;2022-08-18T10:37:03;24.50;59.00
62583;DHT22;48641;51.676;5.808;2022-08-18T10:42:19;24.50;58.90
62583;DHT22;48641;51.676;5.808;2022-08-18T10:44:49;24.50;58.80
62583;DHT22;48641;51.676;5.808;2022-08-18T10:47:33;24.50;58.90
62583;DHT22;48641;51.676;5.808;2022-08-18T10:50:04;24.50;58.80
62583;DHT22;48641;51.676;5.808;2022-08-18T10:52:57;24.50;58.90
62583;DHT22;48641;51.676;5.808;2022-08-18T11:04:06;24.50;58.80
62583;DHT22;48641;51.676;5.808;2022-08-18T11:06:39;24.50;58.90
62583;DHT22;48641;51.676;5.808;2022-08-18T11:09:08;24.50;58.90
62583;DHT22;48641;51.676;5.808;2022-08-18T11:11:37;24.50;58.80
62583;DHT22;48641;51.676;5.808;2022-08-18T11:17:03;24.60;58.80
62583;DHT22;48641;51.676;5.808;2022-08-18T11:19:37;24.60;58.70
62583;DHT22;48641;51.676;5.808;2022-08-18T11:22:03;24.60;58.80
62583;DHT22;48641;51.676;5.808;2022-08-18T11:24:30;24.60;58.70
62583;DHT22;48641;51.676;5.808;2022-08-18T11:27:05;24.60;58.70
62583;DHT22;48641;51.676;5.808;2022-08-18T11:29:40;24.60;58.60
62583;DHT22;48641;51.676;5.808;2022-08-18T11:32:14;24.60;58.60
62583;DHT22;48641;51.676;5.808;2022-08-18T11:40:03;24.60;58.60
62583;DHT22;48641;51.676;5.808;2022-08-18T11:42:33;24.70;58.60
62583;DHT22;48641;51.676;5.808;2022-08-18T11:45:17;24.70;58.60
62583;DHT22;48641;51.676;5.808;2022-08-18T11:50:28;24.80;58.40
62583;DHT22;48641;51.676;5.808;2022-08-18T11:52:55;24.80;58.50
62583;DHT22;48641;51.676;5.808;2022-08-18T11:55:29;24.80;58.40
62583;DHT22;48641;51.676;5.808;2022-08-18T11:57:56;24.90;58.30
62583;DHT22;48641;51.676;5.808;2022-08-18T12:03:39;24.90;58.00
62583;DHT22;48641;51.676;5.808;2022-08-18T12:06:32;24.90;57.90
62583;DHT22;48641;51.676;5.808;2022-08-18T12:09:05;24.90;57.90
62583;DHT22;48641;51.676;5.808;2022-08-18T12:11:35;24.90;58.10
62583;DHT22;48641;51.676;5.808;2022-08-18T12:14:17;24.90;59.10
62583;DHT22;48641;51.676;5.808;2022-08-18T12:16:43;24.90;58.00
62583;DHT22;48641;51.676;5.808;2022-08-18T12:19:10;24.90;58.00
62583;DHT22;48641;51.676;5.808;2022-08-18T12:21:38;24.90;57.90
62583;DHT22;48641;51.676;5.808;2022-08-18T12:24:06;24.90;57.90
62583;DHT22;48641;51.676;5.808;2022-08-18T12:26:33;25.00;57.80
62583;DHT22;48641;51.676;5.808;2022-08-18T12:28:59;25.00;57.80
62583;DHT22;48641;51.676;5.808;2022-08-18T12:31:24;25.00;57.70
62583;DHT22;48641;51.676;5.808;2022-08-18T12:33:50;25.00;57.70
62583;DHT22;48641;51.676;5.808;2022-08-18T12:36:15;25.10;57.70
62583;DHT22;48641;51.676;5.808;2022-08-18T12:38:42;25.10;57.60
62583;DHT22;48641;51.676;5.808;2022-08-18T12:41:09;25.10;57.60
62583;DHT22;48641;51.676;5.808;2022-08-18T12:43:37;25.10;58.60
62583;DHT22;48641;51.676;5.808;2022-08-18T12:46:03;25.10;57.40
62583;DHT22;48641;51.676;5.808;2022-08-18T12:48:29;25.10;57.30
62583;DHT22;48641;51.676;5.808;2022-08-18T12:50:56;25.20;57.30
62583;DHT22;48641;51.676;5.808;2022-08-18T12:53:23;25.20;57.20
62583;DHT22;48641;51.676;5.808;2022-08-18T12:55:49;25.20;57.10
62583;DHT22;48641;51.676;5.808;2022-08-18T12:58:15;25.20;57.20
62583;DHT22;48641;51.676;5.808;2022-08-18T13:00:40;25.20;58.10
62583;DHT22;48641;51.676;5.808;2022-08-18T13:03:06;25.20;57.10
62583;DHT22;48641;51.676;5.808;2022-08-18T13:05:33;25.20;57.00
62583;DHT22;48641;51.676;5.808;2022-08-18T13:08:01;25.20;57.00
62583;DHT22;48641;51.676;5.808;2022-08-18T13:10:27;25.20;57.90
62583;DHT22;48641;51.676;5.808;2022-08-18T13:12:52;25.20;56.90
62583;DHT22;48641;51.676;5.808;2022-08-18T13:15:18;25.20;56.80
62583;DHT22;48641;51.676;5.808;2022-08-18T13:17:44;25.30;56.90
62583;DHT22;48641;51.676;5.808;2022-08-18T13:20:13;25.20;56.80
62583;DHT22;48641;51.676;5.808;2022-08-18T13:22:40;25.20;56.80
62583;DHT22;48641;51.676;5.808;2022-08-18T13:25:08;25.20;56.80
62583;DHT22;48641;51.676;5.808;2022-08-18T13:27:35;25.20;56.80
62583;DHT22;48641;51.676;5.808;2022-08-18T13:30:02;25.20;56.80
62583;DHT22;48641;51.676;5.808;2022-08-18T13:32:28;25.20;56.80
62583;DHT22;48641;51.676;5.808;2022-08-18T13:34:54;25.20;56.80
62583;DHT22;48641;51.676;5.808;2022-08-18T13:37:19;25.20;56.80
62583;DHT22;48641;51.676;5.808;2022-08-18T13:39:45;25.20;56.90
62583;DHT22;48641;51.676;5.808;2022-08-18T13:42:11;25.20;56.90
62583;DHT22;48641;51.676;5.808;2022-08-18T13:44:37;25.20;57.00
62583;DHT22;48641;51.676;5.808;2022-08-18T13:47:06;25.20;56.80
62583;DHT22;48641;51.676;5.808;2022-08-18T13:49:31;25.20;56.80
62583;DHT22;48641;51.676;5.808;2022-08-18T13:51:57;25.10;57.00
62583;DHT22;48641;51.676;5.808;2022-08-18T13:54:28;25.20;57.00
62583;DHT22;48641;51.676;5.808;2022-08-18T13:56:54;25.20;57.00
62583;DHT22;48641;51.676;5.808;2022-08-18T13:59:21;25.20;57.00
62583;DHT22;48641;51.676;5.808;2022-08-18T14:01:48;25.20;57.00
62583;DHT22;48641;51.676;5.808;2022-08-18T14:04:16;25.20;57.00
62583;DHT22;48641;51.676;5.808;2022-08-18T14:06:42;25.20;56.90
62583;DHT22;48641;51.676;5.808;2022-08-18T14:09:07;25.20;56.90
62583;DHT22;48641;51.676;5.808;2022-08-18T14:11:34;25.20;57.00
62583;DHT22;48641;51.676;5.808;2022-08-18T14:14:02;25.20;57.00
62583;DHT22;48641;51.676;5.808;2022-08-18T14:16:31;25.20;57.00
62583;DHT22;48641;51.676;5.808;2022-08-18T14:18:57;25.20;57.00
62583;DHT22;48641;51.676;5.808;2022-08-18T14:21:44;25.20;57.10
62583;DHT22;48641;51.676;5.808;2022-08-18T14:24:29;25.20;57.00
62583;DHT22;48641;51.676;5.808;2022-08-18T14:27:13;25.20;57.00
62583;DHT22;48641;51.676;5.808;2022-08-18T14:29:39;25.20;57.00
62583;DHT22;48641;51.676;5.808;2022-08-18T14:32:08;25.20;57.00
62583;DHT22;48641;51.676;5.808;2022-08-18T14:34:34;25.20;57.00
62583;DHT22;48641;51.676;5.808;2022-08-18T14:37:00;25.20;57.10
62583;DHT22;48641;51.676;5.808;2022-08-18T14:39:25;25.20;57.20
62583;DHT22;48641;51.676;5.808;2022-08-18T14:41:51;25.20;57.20
62583;DHT22;48641;51.676;5.808;2022-08-18T14:44:17;25.20;57.20
62583;DHT22;48641;51.676;5.808;2022-08-18T14:46:43;25.20;57.20
62583;DHT22;48641;51.676;5.808;2022-08-18T14:49:12;25.30;57.30
62583;DHT22;48641;51.676;5.808;2022-08-18T14:51:38;25.30;57.30
62583;DHT22;48641;51.676;5.808;2022-08-18T14:54:08;25.30;57.20
62583;DHT22;48641;51.676;5.808;2022-08-18T14:56:33;25.30;57.20
62583;DHT22;48641;51.676;5.808;2022-08-18T14:58:59;25.30;57.20
62583;DHT22;48641;51.676;5.808;2022-08-18T15:01:25;25.30;57.10
62583;DHT22;48641;51.676;5.808;2022-08-18T15:03:51;25.40;57.10
62583;DHT22;48641;51.676;5.808;2022-08-18T15:06:17;25.40;57.00
62583;DHT22;48641;51.676;5.808;2022-08-18T15:08:43;25.40;56.90
62583;DHT22;48641;51.676;5.808;2022-08-18T15:11:09;25.40;56.80
62583;DHT22;48641;51.676;5.808;2022-08-18T15:13:41;25.40;56.70
62583;DHT22;48641;51.676;5.808;2022-08-18T15:16:08;25.40;56.70
62583;DHT22;48641;51.676;5.808;2022-08-18T15:18:41;25.40;56.70
62583;DHT22;48641;51.676;5.808;2022-08-18T15:21:07;25.40;56.70
62583;DHT22;48641;51.676;5.808;2022-08-18T15:23:51;25.40;56.70
62583;DHT22;48641;51.676;5.808;2022-08-18T15:26:36;25.40;56.70
62583;DHT22;48641;51.676;5.808;2022-08-18T15:29:04;25.40;56.80
62583;DHT22;48641;51.676;5.808;2022-08-18T15:31:32;25.50;56.80
62583;DHT22;48641;51.676;5.808;2022-08-18T15:33:58;25.40;56.70
62583;DHT22;48641;51.676;5.808;2022-08-18T15:36:24;25.40;56.90
62583;DHT22;48641;51.676;5.808;2022-08-18T15:38:50;25.40;56.90
62583;DHT22;48641;51.676;5.808;2022-08-18T15:41:35;25.40;56.80
62583;DHT22;48641;51.676;5.808;2022-08-18T15:44:04;25.40;56.60
62583;DHT22;48641;51.676;5.808;2022-08-18T15:46:32;25.40;56.80
62583;DHT22;48641;51.676;5.808;2022-08-18T15:48:59;25.40;56.70
62583;DHT22;48641;51.676;5.808;2022-08-18T15:51:25;25.40;56.70
62583;DHT22;48641;51.676;5.808;2022-08-18T15:53:50;25.40;56.70
62583;DHT22;48641;51.676;5.808;2022-08-18T15:56:22;25.40;56.70
62583;DHT22;48641;51.676;5.808;2022-08-18T15:58:49;25.50;56.70
62583;DHT22;48641;51.676;5.808;2022-08-18T16:01:16;25.40;56.60
62583;DHT22;48641;51.676;5.808;2022-08-18T16:03:42;25.50;56.70
62583;DHT22;48641;51.676;5.808;2022-08-18T16:06:12;25.40;56.50
62583;DHT22;48641;51.676;5.808;2022-08-18T16:08:38;25.50;56.50
62583;DHT22;48641;51.676;5.808;2022-08-18T16:11:12;25.50;56.40
62583;DHT22;48641;51.676;5.808;2022-08-18T16:13:39;25.50;56.40
62583;DHT22;48641;51.676;5.808;2022-08-18T16:16:14;25.40;56.50
62583;DHT22;48641;51.676;5.808;2022-08-18T16:18:40;25.50;56.60
62583;DHT22;48641;51.676;5.808;2022-08-18T16:21:08;25.50;56.70
62583;DHT22;48641;51.676;5.808;2022-08-18T16:23:40;25.50;56.70
62583;DHT22;48641;51.676;5.808;2022-08-18T16:26:06;25.50;56.70
62583;DHT22;48641;51.676;5.808;2022-08-18T16:28:33;25.40;56.60
62583;DHT22;48641;51.676;5.808;2022-08-18T16:30:59;25.50;56.60
62583;DHT22;48641;51.676;5.808;2022-08-18T16:33:26;25.50;56.50
62583;DHT22;48641;51.676;5.808;2022-08-18T16:35:51;25.40;56.30
62583;DHT22;48641;51.676;5.808;2022-08-18T16:38:18;25.50;56.40
62583;DHT22;48641;51.676;5.808;2022-08-18T16:40:44;25.40;56.30
62583;DHT22;48641;51.676;5.808;2022-08-18T16:43:10;25.40;56.30
62583;DHT22;48641;51.676;5.808;2022-08-18T16:45:38;25.40;56.30
62583;DHT22;48641;51.676;5.808;2022-08-18T16:48:05;25.40;56.40
62583;DHT22;48641;51.676;5.808;2022-08-18T16:50:34;25.40;56.40
62583;DHT22;48641;51.676;5.808;2022-08-18T16:53:00;25.40;56.40
62583;DHT22;48641;51.676;5.808;2022-08-18T16:55:26;25.40;56.30
62583;DHT22;48641;51.676;5.808;2022-08-18T16:57:51;25.40;56.30
62583;DHT22;48641;51.676;5.808;2022-08-18T17:00:36;25.50;56.30
62583;DHT22;48641;51.676;5.808;2022-08-18T17:03:22;25.40;56.20
62583;DHT22;48641;51.676;5.808;2022-08-18T17:06:10;25.40;56.20
62583;DHT22;48641;51.676;5.808;2022-08-18T17:08:38;25.40;56.20
62583;DHT22;48641;51.676;5.808;2022-08-18T17:11:07;25.40;56.30
62583;DHT22;48641;51.676;5.808;2022-08-18T17:13:34;25.40;56.30
62583;DHT22;48641;51.676;5.808;2022-08-18T17:16:01;25.40;56.30
62583;DHT22;48641;51.676;5.808;2022-08-18T17:18:27;25.40;56.30
62583;DHT22;48641;51.676;5.808;2022-08-18T17:20:55;25.40;56.40
62583;DHT22;48641;51.676;5.808;2022-08-18T17:23:21;25.40;56.40
62583;DHT22;48641;51.676;5.808;2022-08-18T17:25:46;25.40;56.40
62583;DHT22;48641;51.676;5.808;2022-08-18T17:28:13;25.40;56.40
62583;DHT22;48641;51.676;5.808;2022-08-18T17:30:47;25.40;56.30
62583;DHT22;48641;51.676;5.808;2022-08-18T17:33:26;25.40;56.30
62583;DHT22;48641;51.676;5.808;2022-08-18T17:35:54;25.40;56.30
62583;DHT22;48641;51.676;5.808;2022-08-18T17:38:25;25.40;56.30
62583;DHT22;48641;51.676;5.808;2022-08-18T17:40:54;25.40;56.30
62583;DHT22;48641;51.676;5.808;2022-08-18T17:43:21;25.40;56.30
62583;DHT22;48641;51.676;5.808;2022-08-18T17:46:00;25.40;56.40
62583;DHT22;48641;51.676;5.808;2022-08-18T17:49:10;25.30;56.60
62583;DHT22;48641;51.676;5.808;2022-08-18T17:51:37;25.30;56.60
62583;DHT22;48641;51.676;5.808;2022-08-18T17:54:14;25.30;56.60
62583;DHT22;48641;51.676;5.808;2022-08-18T17:56:47;25.40;56.70